sensor_id;sensor_type;location;lat;lon;timestamp;temperature;humidity
27423;DHT22;14878;50.778;0.258;2022-09-03T00:00:16;19.10;99.90
27423;DHT22;14878;50.778;0.258;2022-09-03T00:01:21;19.10;99.90
27423;DHT22;14878;50.778;0.258;2022-09-03T00:03:19;22.60;99.90
27423;DHT22;14878;50.778;0.258;2022-09-03T00:03:56;19.10;99.90
27423;DHT22;14878;50.778;0.258;2022-09-03T00:09:49;19.20;99.90
27423;DHT22;14878;50.778;0.258;2022-09-03T00:11:00;18.90;99.90
27423;DHT22;14878;50.778;0.258;2022-09-03T00:12:25;18.60;99.90
27423;DHT22;14878;50.778;0.258;2022-09-03T00:13:49;18.70;99.90
27423;DHT22;14878;50.778;0.258;2022-09-03T00:15:02;18.40;99.90
27423;DHT22;14878;50.778;0.258;2022-09-03T00:16:08;18.50;99.90
27423;DHT22;14878;50.778;0.258;2022-09-03T00:17:17;18.40;99.90
27423;DHT22;14878;50.778;0.258;2022-09-03T00:18:21;18.10;99.90
27423;DHT22;14878;50.778;0.258;2022-09-03T00:19:34;18.50;99.90
27423;DHT22;14878;50.778;0.258;2022-09-03T00:20:40;18.50;99.90
27423;DHT22;14878;50.778;0.258;2022-09-03T00:21:49;18.50;99.90
27423;DHT22;14878;50.778;0.258;2022-09-03T00:22:53;18.50;99.90
27423;DHT22;14878;50.778;0.258;2022-09-03T00:23:55;18.60;99.90
27423;DHT22;14878;50.778;0.258;2022-09-03T00:24:58;18.70;99.90
27423;DHT22;14878;50.778;0.258;2022-09-03T00:26:26;18.70;99.90
27423;DHT22;14878;50.778;0.258;2022-09-03T00:27:31;18.70;99.90
27423;DHT22;14878;50.778;0.258;2022-09-03T00:28:37;18.70;99.90
27423;DHT22;14878;50.778;0.258;2022-09-03T00:29:48;18.70;99.90
27423;DHT22;14878;50.778;0.258;2022-09-03T00:30:55;18.60;99.90
27423;DHT22;14878;50.778;0.258;2022-09-03T00:32:04;18.70;99.90
27423;DHT22;14878;50.778;0.258;2022-09-03T00:33:19;18.50;99.90
27423;DHT22;14878;50.778;0.258;2022-09-03T00:34:34;18.50;99.90
27423;DHT22;14878;50.778;0.258;2022-09-03T00:36:01;18.60;99.90
27423;DHT22;14878;50.778;0.258;2022-09-03T00:37:03;18.60;99.90
27423;DHT22;14878;50.778;0.258;2022-09-03T00:38:04;18.50;99.90
27423;DHT22;14878;50.778;0.258;2022-09-03T00:39:05;18.50;99.90
27423;DHT22;14878;50.778;0.258;2022-09-03T00:40:14;18.50;99.90
27423;DHT22;14878;50.778;0.258;2022-09-03T00:46:23;18.80;99.90
27423;DHT22;14878;50.778;0.258;2022-09-03T00:53:22;18.40;99.90
27423;DHT22;14878;50.778;0.258;2022-09-03T00:54:59;18.50;99.90
27423;DHT22;14878;50.778;0.258;2022-09-03T00:56:26;18.50;99.90
27423;DHT22;14878;50.778;0.258;2022-09-03T01:00:10;18.20;99.90
27423;DHT22;14878;50.778;0.258;2022-09-03T01:01:49;18.30;99.90
27423;DHT22;14878;50.778;0.258;2022-09-03T01:03:08;18.40;99.90
27423;DHT22;14878;50.778;0.258;2022-09-03T01:11:46;18.60;99.90
27423;DHT22;14878;50.778;0.258;2022-09-03T01:12:59;18.70;99.90
27423;DHT22;14878;50.778;0.258;2022-09-03T01:15:17;18.40;99.90
27423;DHT22;14878;50.778;0.258;2022-09-03T01:18:09;18.40;99.90
27423;DHT22;14878;50.778;0.258;2022-09-03T01:22:00;18.50;99.90
27423;DHT22;14878;50.778;0.258;2022-09-03T01:24:11;18.50;99.90
27423;DHT22;14878;50.778;0.258;2022-09-03T01:29:24;18.30;99.90
27423;DHT22;14878;50.778;0.258;2022-09-03T01:30:26;18.30;99.90
27423;DHT22;14878;50.778;0.258;2022-09-03T01:33:18;18.00;99.90
27423;DHT22;14878;50.778;0.258;2022-09-03T01:37:44;18.00;99.90
27423;DHT22;14878;50.778;0.258;2022-09-03T01:39:07;18.10;99.90
27423;DHT22;14878;50.778;0.258;2022-09-03T01:44:59;18.20;99.90
27423;DHT22;14878;50.778;0.258;2022-09-03T01:46:23;18.30;99.90
27423;DHT22;14878;50.778;0.258;2022-09-03T01:47:31;18.30;99.90
27423;DHT22;14878;50.778;0.258;2022-09-03T01:51:03;18.10;99.90
27423;DHT22;14878;50.778;0.258;2022-09-03T01:52:18;18.10;99.90
27423;DHT22;14878;50.778;0.258;2022-09-03T01:53:43;18.00;99.90
27423;DHT22;14878;50.778;0.258;2022-09-03T01:57:49;18.20;99.90
27423;DHT22;14878;50.778;0.258;2022-09-03T02:00:11;18.20;99.90
27423;DHT22;14878;50.778;0.258;2022-09-03T02:01:26;18.30;99.90
27423;DHT22;14878;50.778;0.258;2022-09-03T02:02:29;18.30;99.90
27423;DHT22;14878;50.778;0.258;2022-09-03T02:03:38;18.30;99.90
27423;DHT22;14878;50.778;0.258;2022-09-03T02:04:40;18.20;99.90
27423;DHT22;14878;50.778;0.258;2022-09-03T02:05:41;18.20;99.90
27423;DHT22;14878;50.778;0.258;2022-09-03T02:06:43;18.20;99.90
27423;DHT22;14878;50.778;0.258;2022-09-03T02:08:57;18.30;99.90
27423;DHT22;14878;50.778;0.258;2022-09-03T02:09:58;18.30;99.90
27423;DHT22;14878;50.778;0.258;2022-09-03T02:11:00;18.50;99.90
27423;DHT22;14878;50.778;0.258;2022-09-03T02:12:13;18.20;99.90
27423;DHT22;14878;50.778;0.258;2022-09-03T02:13:25;18.30;99.90
27423;DHT22;14878;50.778;0.258;2022-09-03T02:14:28;18.20;99.90
27423;DHT22;14878;50.778;0.258;2022-09-03T02:15:30;18.20;99.90
27423;DHT22;14878;50.778;0.258;2022-09-03T02:16:33;18.30;99.90
27423;DHT22;14878;50.778;0.258;2022-09-03T02:17:35;18.30;99.90
27423;DHT22;14878;50.778;0.258;2022-09-03T02:18:51;18.10;99.90
27423;DHT22;14878;50.778;0.258;2022-09-03T02:19:54;18.30;99.90
27423;DHT22;14878;50.778;0.258;2022-09-03T02:20:55;18.30;99.90
27423;DHT22;14878;50.778;0.258;2022-09-03T02:21:56;18.20;99.90
27423;DHT22;14878;50.778;0.258;2022-09-03T02:22:58;18.30;99.90
27423;DHT22;14878;50.778;0.258;2022-09-03T02:23:59;18.30;99.90
27423;DHT22;14878;50.778;0.258;2022-09-03T02:25:00;18.30;99.90
27423;DHT22;14878;50.778;0.258;2022-09-03T02:26:02;18.30;99.90
27423;DHT22;14878;50.778;0.258;2022-09-03T02:27:03;18.10;99.90
27423;DHT22;14878;50.778;0.258;2022-09-03T02:28:05;18.40;99.90
27423;DHT22;14878;50.778;0.258;2022-09-03T02:29:07;18.30;99.90
27423;DHT22;14878;50.778;0.258;2022-09-03T02:30:08;18.30;99.90
27423;DHT22;14878;50.778;0.258;2022-09-03T02:31:09;18.20;99.90
27423;DHT22;14878;50.778;0.258;2022-09-03T02:32:10;18.20;99.90
27423;DHT22;14878;50.778;0.258;2022-09-03T02:33:11;18.20;99.90
27423;DHT22;14878;50.778;0.258;2022-09-03T02:34:13;18.20;99.90
27423;DHT22;14878;50.778;0.258;2022-09-03T02:35:13;18.30;99.90
27423;DHT22;14878;50.778;0.258;2022-09-03T02:36:18;20.90;99.90
27423;DHT22;14878;50.778;0.258;2022-09-03T02:37:19;18.20;99.90
27423;DHT22;14878;50.778;0.258;2022-09-03T02:38:22;18.30;99.90
27423;DHT22;14878;50.778;0.258;2022-09-03T02:39:25;18.30;99.90
27423;DHT22;14878;50.778;0.258;2022-09-03T02:40:28;18.30;99.90
27423;DHT22;14878;50.778;0.258;2022-09-03T02:41:28;18.30;99.90
27423;DHT22;14878;50.778;0.258;2022-09-03T02:42:32;18.30;99.90
27423;DHT22;14878;50.778;0.258;2022-09-03T02:43:35;18.20;99.90
27423;DHT22;14878;50.778;0.258;2022-09-03T02:44:42;18.20;99.90
27423;DHT22;14878;50.778;0.258;2022-09-03T02:45:47;18.30;99.90
27423;DHT22;14878;50.778;0.258;2022-09-03T02:46:55;18.30;99.90
27423;DHT22;14878;50.778;0.258;2022-09-03T02:47:59;18.20;99.90
27423;DHT22;14878;50.778;0.258;2022-09-03T02:49:00;18.10;99.90
27423;DHT22;14878;50.778;0.258;2022-09-03T02:50:00;18.10;99.90
27423;DHT22;14878;50.778;0.258;2022-09-03T02:51:01;17.90;99.90
27423;DHT22;14878;50.778;0.258;2022-09-03T02:52:05;17.90;99.90
27423;DHT22;14878;50.778;0.258;2022-09-03T02:53:08;18.20;99.90
27423;DHT22;14878;50.778;0.258;2022-09-03T02:54:11;17.80;99.90
27423;DHT22;14878;50.778;0.258;2022-09-03T02:55:12;18.00;99.90
27423;DHT22;14878;50.778;0.258;2022-09-03T02:56:12;18.00;99.90
27423;DHT22;14878;50.778;0.258;2022-09-03T02:57:15;17.90;99.90
27423;DHT22;14878;50.778;0.258;2022-09-03T02:58:16;18.00;99.90
27423;DHT22;14878;50.778;0.258;2022-09-03T02:59:16;17.90;99.90
27423;DHT22;14878;50.778;0.258;2022-09-03T03:00:17;17.90;99.90
27423;DHT22;14878;50.778;0.258;2022-09-03T03:01:18;17.90;99.90
27423;DHT22;14878;50.778;0.258;2022-09-03T03:02:19;17.90;99.90
27423;DHT22;14878;50.778;0.258;2022-09-03T03:03:20;18.00;99.90
27423;DHT22;14878;50.778;0.258;2022-09-03T03:04:21;17.80;99.90
27423;DHT22;14878;50.778;0.258;2022-09-03T03:05:26;17.70;99.90
27423;DHT22;14878;50.778;0.258;2022-09-03T03:06:29;17.60;99.90
27423;DHT22;14878;50.778;0.258;2022-09-03T03:07:33;17.80;99.90
27423;DHT22;14878;50.778;0.258;2022-09-03T03:08:36;17.80;99.90
27423;DHT22;14878;50.778;0.258;2022-09-03T03:09:36;17.90;99.90
27423;DHT22;14878;50.778;0.258;2022-09-03T03:10:37;18.10;99.90
27423;DHT22;14878;50.778;0.258;2022-09-03T03:11:38;21.00;99.90
27423;DHT22;14878;50.778;0.258;2022-09-03T03:12:39;18.00;99.90
27423;DHT22;14878;50.778;0.258;2022-09-03T03:13:40;18.00;99.90
27423;DHT22;14878;50.778;0.258;2022-09-03T03:14:41;17.80;99.90
27423;DHT22;14878;50.778;0.258;2022-09-03T03:15:41;17.80;99.90
27423;DHT22;14878;50.778;0.258;2022-09-03T03:16:43;17.70;99.90
27423;DHT22;14878;50.778;0.258;2022-09-03T03:17:43;17.70;99.90
27423;DHT22;14878;50.778;0.258;2022-09-03T03:18:44;17.70;99.90
27423;DHT22;14878;50.778;0.258;2022-09-03T03:19:45;17.70;99.90
27423;DHT22;14878;50.778;0.258;2022-09-03T03:20:46;17.80;99.90
27423;DHT22;14878;50.778;0.258;2022-09-03T03:21:47;17.80;99.90
27423;DHT22;14878;50.778;0.258;2022-09-03T03:22:48;17.80;99.90
27423;DHT22;14878;50.778;0.258;2022-09-03T03:24:12;17.70;99.90
27423;DHT22;14878;50.778;0.258;2022-09-03T03:25:13;17.60;99.90
27423;DHT22;14878;50.778;0.258;2022-09-03T03:26:16;17.80;99.90
27423;DHT22;14878;50.778;0.258;2022-09-03T03:27:20;17.70;99.90
27423;DHT22;14878;50.778;0.258;2022-09-03T03:28:21;17.70;99.90
27423;DHT22;14878;50.778;0.258;2022-09-03T03:29:21;17.70;99.90
27423;DHT22;14878;50.778;0.258;2022-09-03T03:30:22;17.80;99.90
27423;DHT22;14878;50.778;0.258;2022-09-03T03:31:23;17.70;99.90
27423;DHT22;14878;50.778;0.258;2022-09-03T03:32:25;18.10;99.90
27423;DHT22;14878;50.778;0.258;2022-09-03T03:33:26;17.90;99.90
27423;DHT22;14878;50.778;0.258;2022-09-03T03:34:26;18.00;99.90
27423;DHT22;14878;50.778;0.258;2022-09-03T03:35:27;18.10;99.90
27423;DHT22;14878;50.778;0.258;2022-09-03T03:36:30;18.10;99.90
27423;DHT22;14878;50.778;0.258;2022-09-03T03:37:32;18.00;99.90
27423;DHT22;14878;50.778;0.258;2022-09-03T03:38:34;18.20;99.90
27423;DHT22;14878;50.778;0.258;2022-09-03T03:39:35;18.30;99.90
27423;DHT22;14878;50.778;0.258;2022-09-03T03:40:37;18.30;99.90
27423;DHT22;14878;50.778;0.258;2022-09-03T03:41:38;18.20;99.90
27423;DHT22;14878;50.778;0.258;2022-09-03T03:42:39;18.20;99.90
27423;DHT22;14878;50.778;0.258;2022-09-03T03:43:40;18.20;99.90
27423;DHT22;14878;50.778;0.258;2022-09-03T03:44:41;18.30;99.90
27423;DHT22;14878;50.778;0.258;2022-09-03T03:45:43;18.30;99.90
27423;DHT22;14878;50.778;0.258;2022-09-03T03:46:44;18.40;99.90
27423;DHT22;14878;50.778;0.258;2022-09-03T03:47:44;19.30;99.90
27423;DHT22;14878;50.778;0.258;2022-09-03T03:48:47;18.20;99.90
27423;DHT22;14878;50.778;0.258;2022-09-03T03:49:48;18.10;99.90
27423;DHT22;14878;50.778;0.258;2022-09-03T03:50:48;17.90;99.90
27423;DHT22;14878;50.778;0.258;2022-09-03T03:51:49;17.90;99.90
27423;DHT22;14878;50.778;0.258;2022-09-03T03:52:50;18.00;99.90
27423;DHT22;14878;50.778;0.258;2022-09-03T03:53:54;18.00;99.90
27423;DHT22;14878;50.778;0.258;2022-09-03T03:54:56;18.10;99.90
27423;DHT22;14878;50.778;0.258;2022-09-03T03:55:58;18.10;99.90
27423;DHT22;14878;50.778;0.258;2022-09-03T03:56:59;18.10;99.90
27423;DHT22;14878;50.778;0.258;2022-09-03T03:58:00;18.10;99.90
27423;DHT22;14878;50.778;0.258;2022-09-03T03:59:01;18.00;99.90
27423;DHT22;14878;50.778;0.258;2022-09-03T04:00:03;18.00;99.90
27423;DHT22;14878;50.778;0.258;2022-09-03T04:01:10;18.00;99.90
27423;DHT22;14878;50.778;0.258;2022-09-03T04:02:11;18.10;99.90
27423;DHT22;14878;50.778;0.258;2022-09-03T04:03:12;18.00;99.90
27423;DHT22;14878;50.778;0.258;2022-09-03T04:04:13;18.10;99.90
27423;DHT22;14878;50.778;0.258;2022-09-03T04:05:14;21.70;99.90
27423;DHT22;14878;50.778;0.258;2022-09-03T04:06:17;18.20;99.90
27423;DHT22;14878;50.778;0.258;2022-09-03T04:07:18;18.30;99.90
27423;DHT22;14878;50.778;0.258;2022-09-03T04:08:19;18.20;99.90
27423;DHT22;14878;50.778;0.258;2022-09-03T04:09:20;18.20;99.90
27423;DHT22;14878;50.778;0.258;2022-09-03T04:10:21;18.30;99.90
27423;DHT22;14878;50.778;0.258;2022-09-03T04:11:23;18.00;99.90
27423;DHT22;14878;50.778;0.258;2022-09-03T04:12:24;18.10;99.90
27423;DHT22;14878;50.778;0.258;2022-09-03T04:13:30;18.00;99.90
27423;DHT22;14878;50.778;0.258;2022-09-03T04:14:31;17.70;99.90
27423;DHT22;14878;50.778;0.258;2022-09-03T04:15:32;17.80;99.90
27423;DHT22;14878;50.778;0.258;2022-09-03T04:16:33;17.70;99.90
27423;DHT22;14878;50.778;0.258;2022-09-03T04:17:34;17.90;99.90
27423;DHT22;14878;50.778;0.258;2022-09-03T04:18:35;17.90;99.90
27423;DHT22;14878;50.778;0.258;2022-09-03T04:19:36;17.90;99.90
27423;DHT22;14878;50.778;0.258;2022-09-03T04:20:37;17.90;99.90
27423;DHT22;14878;50.778;0.258;2022-09-03T04:21:38;18.00;99.90
27423;DHT22;14878;50.778;0.258;2022-09-03T04:22:39;18.00;99.90
27423;DHT22;14878;50.778;0.258;2022-09-03T04:23:43;18.00;99.90
27423;DHT22;14878;50.778;0.258;2022-09-03T04:24:44;18.10;99.90
27423;DHT22;14878;50.778;0.258;2022-09-03T04:25:51;17.80;99.90
27423;DHT22;14878;50.778;0.258;2022-09-03T04:26:52;17.70;99.90
27423;DHT22;14878;50.778;0.258;2022-09-03T04:27:54;17.60;99.90
27423;DHT22;14878;50.778;0.258;2022-09-03T04:28:54;17.50;99.90
27423;DHT22;14878;50.778;0.258;2022-09-03T04:29:56;17.20;99.90
27423;DHT22;14878;50.778;0.258;2022-09-03T04:31:07;17.30;99.90
27423;DHT22;14878;50.778;0.258;2022-09-03T04:32:08;17.20;99.90
27423;DHT22;14878;50.778;0.258;2022-09-03T04:33:27;17.30;99.90
27423;DHT22;14878;50.778;0.258;2022-09-03T04:34:28;17.20;99.90
27423;DHT22;14878;50.778;0.258;2022-09-03T04:35:29;17.20;99.90
27423;DHT22;14878;50.778;0.258;2022-09-03T04:36:31;17.20;99.90
27423;DHT22;14878;50.778;0.258;2022-09-03T04:37:34;17.10;99.90
27423;DHT22;14878;50.778;0.258;2022-09-03T04:38:36;17.20;99.90
27423;DHT22;14878;50.778;0.258;2022-09-03T04:39:37;17.10;99.90
27423;DHT22;14878;50.778;0.258;2022-09-03T04:40:38;17.10;99.90
27423;DHT22;14878;50.778;0.258;2022-09-03T04:41:39;17.00;99.90
27423;DHT22;14878;50.778;0.258;2022-09-03T04:42:40;17.00;99.90
27423;DHT22;14878;50.778;0.258;2022-09-03T04:43:41;17.10;99.90
27423;DHT22;14878;50.778;0.258;2022-09-03T04:44:42;17.10;99.90
27423;DHT22;14878;50.778;0.258;2022-09-03T04:45:43;17.20;99.90
27423;DHT22;14878;50.778;0.258;2022-09-03T04:46:44;17.20;99.90
27423;DHT22;14878;50.778;0.258;2022-09-03T04:48:00;17.30;99.90
27423;DHT22;14878;50.778;0.258;2022-09-03T04:49:01;17.30;99.90
27423;DHT22;14878;50.778;0.258;2022-09-03T04:50:03;17.40;99.90
27423;DHT22;14878;50.778;0.258;2022-09-03T04:51:14;17.40;99.90
27423;DHT22;14878;50.778;0.258;2022-09-03T04:52:15;17.30;99.90
27423;DHT22;14878;50.778;0.258;2022-09-03T04:53:16;17.20;99.90
27423;DHT22;14878;50.778;0.258;2022-09-03T04:54:17;17.40;99.90
27423;DHT22;14878;50.778;0.258;2022-09-03T04:55:17;17.30;99.90
27423;DHT22;14878;50.778;0.258;2022-09-03T04:56:21;17.20;99.90
27423;DHT22;14878;50.778;0.258;2022-09-03T04:57:22;17.30;99.90
27423;DHT22;14878;50.778;0.258;2022-09-03T04:58:23;17.20;99.90
27423;DHT22;14878;50.778;0.258;2022-09-03T04:59:24;17.20;99.90
27423;DHT22;14878;50.778;0.258;2022-09-03T05:00:25;17.10;99.90
27423;DHT22;14878;50.778;0.258;2022-09-03T05:01:28;17.20;99.90
27423;DHT22;14878;50.778;0.258;2022-09-03T05:02:29;16.90;99.90
27423;DHT22;14878;50.778;0.258;2022-09-03T05:03:30;17.10;99.90
27423;DHT22;14878;50.778;0.258;2022-09-03T05:04:30;16.90;99.90
27423;DHT22;14878;50.778;0.258;2022-09-03T05:05:31;16.60;99.90
27423;DHT22;14878;50.778;0.258;2022-09-03T05:06:36;16.90;99.90
27423;DHT22;14878;50.778;0.258;2022-09-03T05:07:36;16.80;99.90
27423;DHT22;14878;50.778;0.258;2022-09-03T05:08:38;17.00;99.90
27423;DHT22;14878;50.778;0.258;2022-09-03T05:09:39;17.10;99.90
27423;DHT22;14878;50.778;0.258;2022-09-03T05:10:40;17.00;99.90
27423;DHT22;14878;50.778;0.258;2022-09-03T05:11:41;16.80;99.90
27423;DHT22;14878;50.778;0.258;2022-09-03T05:12:41;16.90;99.90
27423;DHT22;14878;50.778;0.258;2022-09-03T05:13:45;16.80;99.90
27423;DHT22;14878;50.778;0.258;2022-09-03T05:14:46;16.80;99.90
27423;DHT22;14878;50.778;0.258;2022-09-03T05:15:47;16.80;99.90
27423;DHT22;14878;50.778;0.258;2022-09-03T05:16:48;15.30;99.90
27423;DHT22;14878;50.778;0.258;2022-09-03T05:17:49;16.70;99.90
27423;DHT22;14878;50.778;0.258;2022-09-03T05:18:54;16.60;99.90
27423;DHT22;14878;50.778;0.258;2022-09-03T05:19:56;16.90;99.90
27423;DHT22;14878;50.778;0.258;2022-09-03T05:21:01;16.80;99.90
27423;DHT22;14878;50.778;0.258;2022-09-03T05:22:02;16.80;99.90
27423;DHT22;14878;50.778;0.258;2022-09-03T05:23:03;17.10;99.90
27423;DHT22;14878;50.778;0.258;2022-09-03T05:24:04;19.10;99.90
27423;DHT22;14878;50.778;0.258;2022-09-03T05:25:05;17.20;99.90
27423;DHT22;14878;50.778;0.258;2022-09-03T05:26:09;17.20;99.90
27423;DHT22;14878;50.778;0.258;2022-09-03T05:27:10;17.30;99.90
27423;DHT22;14878;50.778;0.258;2022-09-03T05:28:11;17.30;99.90
27423;DHT22;14878;50.778;0.258;2022-09-03T05:29:12;17.40;99.90
27423;DHT22;14878;50.778;0.258;2022-09-03T05:30:13;17.40;99.90
27423;DHT22;14878;50.778;0.258;2022-09-03T05:31:17;17.50;99.90
27423;DHT22;14878;50.778;0.258;2022-09-03T05:32:17;17.60;99.90
27423;DHT22;14878;50.778;0.258;2022-09-03T05:33:18;17.60;99.90
27423;DHT22;14878;50.778;0.258;2022-09-03T05:34:19;17.60;99.90
27423;DHT22;14878;50.778;0.258;2022-09-03T05:35:20;17.80;99.90
27423;DHT22;14878;50.778;0.258;2022-09-03T05:36:22;17.50;99.90
27423;DHT22;14878;50.778;0.258;2022-09-03T05:37:22;17.50;99.90
27423;DHT22;14878;50.778;0.258;2022-09-03T05:38:23;17.30;99.90
27423;DHT22;14878;50.778;0.258;2022-09-03T05:40:25;17.30;99.90
27423;DHT22;14878;50.778;0.258;2022-09-03T05:41:27;17.30;99.90
27423;DHT22;14878;50.778;0.258;2022-09-03T05:42:28;17.40;99.90
27423;DHT22;14878;50.778;0.258;2022-09-03T05:43:31;17.50;99.90
27423;DHT22;14878;50.778;0.258;2022-09-03T05:44:32;17.40;99.90
27423;DHT22;14878;50.778;0.258;2022-09-03T05:45:32;17.20;99.90
27423;DHT22;14878;50.778;0.258;2022-09-03T05:46:33;17.20;99.90
27423;DHT22;14878;50.778;0.258;2022-09-03T05:47:37;17.10;99.90
27423;DHT22;14878;50.778;0.258;2022-09-03T05:48:39;17.10;99.90
27423;DHT22;14878;50.778;0.258;2022-09-03T05:49:40;17.20;99.90
27423;DHT22;14878;50.778;0.258;2022-09-03T05:50:41;17.00;99.90
27423;DHT22;14878;50.778;0.258;2022-09-03T05:51:42;17.10;99.90
27423;DHT22;14878;50.778;0.258;2022-09-03T05:52:43;17.30;99.90
27423;DHT22;14878;50.778;0.258;2022-09-03T05:53:46;17.30;99.90
27423;DHT22;14878;50.778;0.258;2022-09-03T05:54:47;17.40;99.90
27423;DHT22;14878;50.778;0.258;2022-09-03T05:55:57;17.30;99.90
27423;DHT22;14878;50.778;0.258;2022-09-03T05:56:58;17.40;99.90
27423;DHT22;14878;50.778;0.258;2022-09-03T05:57:59;18.60;99.90
27423;DHT22;14878;50.778;0.258;2022-09-03T05:59:02;17.40;99.90
27423;DHT22;14878;50.778;0.258;2022-09-03T06:00:05;17.30;99.90
27423;DHT22;14878;50.778;0.258;2022-09-03T06:01:18;17.10;99.90
27423;DHT22;14878;50.778;0.258;2022-09-03T06:02:19;17.40;99.90
27423;DHT22;14878;50.778;0.258;2022-09-03T06:03:20;17.40;99.90
27423;DHT22;14878;50.778;0.258;2022-09-03T06:04:20;17.40;99.90
27423;DHT22;14878;50.778;0.258;2022-09-03T06:05:21;17.30;99.90
27423;DHT22;14878;50.778;0.258;2022-09-03T06:06:23;17.30;99.90
27423;DHT22;14878;50.778;0.258;2022-09-03T06:07:27;17.30;99.90
27423;DHT22;14878;50.778;0.258;2022-09-03T06:08:27;17.40;99.90
27423;DHT22;14878;50.778;0.258;2022-09-03T06:09:28;17.50;99.90
27423;DHT22;14878;50.778;0.258;2022-09-03T06:10:29;17.50;99.90
27423;DHT22;14878;50.778;0.258;2022-09-03T06:11:31;17.90;99.90
27423;DHT22;14878;50.778;0.258;2022-09-03T06:12:32;17.90;99.90
27423;DHT22;14878;50.778;0.258;2022-09-03T06:13:34;17.90;99.90
27423;DHT22;14878;50.778;0.258;2022-09-03T06:14:34;17.90;99.90
27423;DHT22;14878;50.778;0.258;2022-09-03T06:15:35;17.90;99.90
27423;DHT22;14878;50.778;0.258;2022-09-03T06:16:38;17.90;99.90
27423;DHT22;14878;50.778;0.258;2022-09-03T06:17:39;17.90;99.90
27423;DHT22;14878;50.778;0.258;2022-09-03T06:18:40;18.10;99.90
27423;DHT22;14878;50.778;0.258;2022-09-03T06:19:40;17.90;99.90
27423;DHT22;14878;50.778;0.258;2022-09-03T06:20:41;17.90;99.90
27423;DHT22;14878;50.778;0.258;2022-09-03T06:21:44;17.70;99.90
27423;DHT22;14878;50.778;0.258;2022-09-03T06:22:48;17.70;99.90
27423;DHT22;14878;50.778;0.258;2022-09-03T06:23:54;17.60;99.90
27423;DHT22;14878;50.778;0.258;2022-09-03T06:24:58;17.90;99.90
27423;DHT22;14878;50.778;0.258;2022-09-03T06:26:09;17.90;99.90
27423;DHT22;14878;50.778;0.258;2022-09-03T06:27:09;17.90;99.90
27423;DHT22;14878;50.778;0.258;2022-09-03T06:28:10;18.00;99.90
27423;DHT22;14878;50.778;0.258;2022-09-03T06:29:11;18.20;99.90
27423;DHT22;14878;50.778;0.258;2022-09-03T06:30:13;15.90;99.90
27423;DHT22;14878;50.778;0.258;2022-09-03T06:31:17;18.40;99.90
27423;DHT22;14878;50.778;0.258;2022-09-03T06:32:18;15.50;99.90
27423;DHT22;14878;50.778;0.258;2022-09-03T06:33:19;18.40;99.90
27423;DHT22;14878;50.778;0.258;2022-09-03T06:34:20;18.40;99.90
27423;DHT22;14878;50.778;0.258;2022-09-03T06:35:22;18.30;99.90
27423;DHT22;14878;50.778;0.258;2022-09-03T06:36:24;18.10;99.90
27423;DHT22;14878;50.778;0.258;2022-09-03T06:37:26;18.20;99.90
27423;DHT22;14878;50.778;0.258;2022-09-03T06:38:30;18.40;99.90
27423;DHT22;14878;50.778;0.258;2022-09-03T06:39:31;18.50;99.90
27423;DHT22;14878;50.778;0.258;2022-09-03T06:40:32;18.80;99.90
27423;DHT22;14878;50.778;0.258;2022-09-03T06:41:33;18.80;99.90
27423;DHT22;14878;50.778;0.258;2022-09-03T06:42:34;18.90;99.90
27423;DHT22;14878;50.778;0.258;2022-09-03T06:43:37;19.00;99.90
27423;DHT22;14878;50.778;0.258;2022-09-03T06:44:38;19.20;99.90
27423;DHT22;14878;50.778;0.258;2022-09-03T06:45:39;19.10;99.90
27423;DHT22;14878;50.778;0.258;2022-09-03T06:46:40;19.10;99.90
27423;DHT22;14878;50.778;0.258;2022-09-03T06:47:41;19.10;99.90
27423;DHT22;14878;50.778;0.258;2022-09-03T06:48:42;19.10;99.90
27423;DHT22;14878;50.778;0.258;2022-09-03T06:49:43;19.30;99.90
27423;DHT22;14878;50.778;0.258;2022-09-03T06:50:58;19.40;99.90
27423;DHT22;14878;50.778;0.258;2022-09-03T06:52:00;19.80;99.90
27423;DHT22;14878;50.778;0.258;2022-09-03T06:53:01;19.90;99.90
27423;DHT22;14878;50.778;0.258;2022-09-03T06:54:11;20.10;99.90
27423;DHT22;14878;50.778;0.258;2022-09-03T06:55:12;20.40;99.90
27423;DHT22;14878;50.778;0.258;2022-09-03T06:56:16;20.60;99.90
27423;DHT22;14878;50.778;0.258;2022-09-03T06:57:17;20.80;99.90
27423;DHT22;14878;50.778;0.258;2022-09-03T06:58:17;21.00;99.90
27423;DHT22;14878;50.778;0.258;2022-09-03T06:59:18;21.20;99.90
27423;DHT22;14878;50.778;0.258;2022-09-03T07:00:19;21.30;99.90
27423;DHT22;14878;50.778;0.258;2022-09-03T07:01:28;21.30;99.90
27423;DHT22;14878;50.778;0.258;2022-09-03T07:02:33;21.40;99.90
27423;DHT22;14878;50.778;0.258;2022-09-03T07:03:34;21.70;99.90
27423;DHT22;14878;50.778;0.258;2022-09-03T07:04:35;21.80;99.90
27423;DHT22;14878;50.778;0.258;2022-09-03T07:05:36;22.00;99.90
27423;DHT22;14878;50.778;0.258;2022-09-03T07:06:38;22.10;99.90
27423;DHT22;14878;50.778;0.258;2022-09-03T07:07:39;22.10;99.90
27423;DHT22;14878;50.778;0.258;2022-09-03T07:08:40;22.30;99.90
27423;DHT22;14878;50.778;0.258;2022-09-03T07:09:42;22.30;99.90
27423;DHT22;14878;50.778;0.258;2022-09-03T07:10:45;22.50;99.90
27423;DHT22;14878;50.778;0.258;2022-09-03T07:11:46;22.50;99.90
27423;DHT22;14878;50.778;0.258;2022-09-03T07:12:48;22.60;99.90
27423;DHT22;14878;50.778;0.258;2022-09-03T07:13:50;22.60;99.90
27423;DHT22;14878;50.778;0.258;2022-09-03T07:14:51;22.70;99.90
27423;DHT22;14878;50.778;0.258;2022-09-03T07:16:02;22.70;99.90
27423;DHT22;14878;50.778;0.258;2022-09-03T07:17:04;22.50;99.90
27423;DHT22;14878;50.778;0.258;2022-09-03T07:18:04;22.50;99.90
27423;DHT22;14878;50.778;0.258;2022-09-03T07:19:05;22.40;99.90
27423;DHT22;14878;50.778;0.258;2022-09-03T07:20:06;22.50;99.90
27423;DHT22;14878;50.778;0.258;2022-09-03T07:21:10;22.40;99.90
27423;DHT22;14878;50.778;0.258;2022-09-03T07:22:11;22.50;99.90
27423;DHT22;14878;50.778;0.258;2022-09-03T07:23:12;22.60;99.90
27423;DHT22;14878;50.778;0.258;2022-09-03T07:24:16;22.60;99.90
27423;DHT22;14878;50.778;0.258;2022-09-03T07:25:17;22.60;99.90
27423;DHT22;14878;50.778;0.258;2022-09-03T07:26:23;22.60;99.90
27423;DHT22;14878;50.778;0.258;2022-09-03T07:27:24;22.70;99.90
27423;DHT22;14878;50.778;0.258;2022-09-03T07:28:26;22.60;99.90
27423;DHT22;14878;50.778;0.258;2022-09-03T07:29:27;22.70;99.90
27423;DHT22;14878;50.778;0.258;2022-09-03T07:30:28;22.60;99.90
27423;DHT22;14878;50.778;0.258;2022-09-03T07:31:31;22.50;99.90
27423;DHT22;14878;50.778;0.258;2022-09-03T07:32:33;22.60;99.90
27423;DHT22;14878;50.778;0.258;2022-09-03T07:33:34;22.70;99.90
27423;DHT22;14878;50.778;0.258;2022-09-03T07:34:35;22.70;99.90
27423;DHT22;14878;50.778;0.258;2022-09-03T07:35:36;22.70;99.90
27423;DHT22;14878;50.778;0.258;2022-09-03T07:36:38;22.70;99.90